sensor_id;sensor_type;location;lat;lon;timestamp;P1;durP1;ratioP1;P2;durP2;ratioP2
38591;SDS011;24356;48.460;11.450;2023-03-31T00:01:06;7.13;;;2.80;;
38591;SDS011;24356;48.460;11.450;2023-03-31T00:03:33;9.43;;;3.15;;
38591;SDS011;24356;48.460;11.450;2023-03-31T00:06:02;5.50;;;2.92;;
38591;SDS011;24356;48.460;11.450;2023-03-31T00:08:29;6.93;;;3.30;;
38591;SDS011;24356;48.460;11.450;2023-03-31T00:10:59;5.63;;;3.15;;
38591;SDS011;24356;48.460;11.450;2023-03-31T00:13:28;6.75;;;2.60;;
38591;SDS011;24356;48.460;11.450;2023-03-31T00:16:27;5.47;;;2.70;;
38591;SDS011;24356;48.460;11.450;2023-03-31T00:18:46;8.15;;;3.00;;
38591;SDS011;24356;48.460;11.450;2023-03-31T00:21:17;6.75;;;2.97;;
38591;SDS011;24356;48.460;11.450;2023-03-31T00:23:54;8.07;;;3.30;;
38591;SDS011;24356;48.460;11.450;2023-03-31T00:26:21;4.63;;;2.95;;
38591;SDS011;24356;48.460;11.450;2023-03-31T00:28:48;8.00;;;3.40;;
38591;SDS011;24356;48.460;11.450;2023-03-31T00:31:14;6.97;;;3.10;;
38591;SDS011;24356;48.460;11.450;2023-03-31T00:33:40;5.30;;;2.42;;
38591;SDS011;24356;48.460;11.450;2023-03-31T00:36:07;5.95;;;2.97;;
38591;SDS011;24356;48.460;11.450;2023-03-31T00:38:33;7.55;;;3.33;;
38591;SDS011;24356;48.460;11.450;2023-03-31T00:40:59;7.00;;;2.80;;
38591;SDS011;24356;48.460;11.450;2023-03-31T00:43:33;4.88;;;2.85;;
38591;SDS011;24356;48.460;11.450;2023-03-31T00:46:14;6.13;;;2.80;;
38591;SDS011;24356;48.460;11.450;2023-03-31T00:48:52;5.78;;;3.05;;
38591;SDS011;24356;48.460;11.450;2023-03-31T00:51:23;4.25;;;2.72;;
38591;SDS011;24356;48.460;11.450;2023-03-31T00:53:52;8.38;;;3.00;;
38591;SDS011;24356;48.460;11.450;2023-03-31T00:56:23;6.35;;;2.83;;
38591;SDS011;24356;48.460;11.450;2023-03-31T00:58:52;9.95;;;2.70;;
38591;SDS011;24356;48.460;11.450;2023-03-31T01:01:21;7.63;;;3.10;;
38591;SDS011;24356;48.460;11.450;2023-03-31T01:03:51;10.45;;;3.10;;
38591;SDS011;24356;48.460;11.450;2023-03-31T01:06:17;6.75;;;3.30;;
38591;SDS011;24356;48.460;11.450;2023-03-31T01:08:47;13.02;;;3.80;;
38591;SDS011;24356;48.460;11.450;2023-03-31T01:11:16;6.20;;;3.10;;
38591;SDS011;24356;48.460;11.450;2023-03-31T01:13:44;8.88;;;3.13;;
38591;SDS011;24356;48.460;11.450;2023-03-31T01:16:14;5.65;;;3.00;;
38591;SDS011;24356;48.460;11.450;2023-03-31T01:18:40;6.78;;;3.15;;
38591;SDS011;24356;48.460;11.450;2023-03-31T01:26:53;6.40;;;3.33;;
38591;SDS011;24356;48.460;11.450;2023-03-31T01:43:11;5.78;;;3.30;;
38591;SDS011;24356;48.460;11.450;2023-03-31T01:45:59;6.20;;;3.65;;
38591;SDS011;24356;48.460;11.450;2023-03-31T01:54:20;9.88;;;3.70;;
38591;SDS011;24356;48.460;11.450;2023-03-31T01:59:25;8.52;;;3.33;;
38591;SDS011;24356;48.460;11.450;2023-03-31T02:02:00;5.82;;;3.17;;
38591;SDS011;24356;48.460;11.450;2023-03-31T02:04:39;7.78;;;3.78;;
38591;SDS011;24356;48.460;11.450;2023-03-31T02:07:09;7.22;;;3.55;;
38591;SDS011;24356;48.460;11.450;2023-03-31T02:09:42;7.95;;;3.70;;
38591;SDS011;24356;48.460;11.450;2023-03-31T02:12:13;6.65;;;3.80;;
38591;SDS011;24356;48.460;11.450;2023-03-31T02:14:41;6.78;;;3.40;;
38591;SDS011;24356;48.460;11.450;2023-03-31T02:17:11;6.93;;;3.75;;
38591;SDS011;24356;48.460;11.450;2023-03-31T02:19:42;8.18;;;3.95;;
38591;SDS011;24356;48.460;11.450;2023-03-31T02:22:11;8.13;;;3.72;;
38591;SDS011;24356;48.460;11.450;2023-03-31T02:24:38;8.05;;;3.78;;
38591;SDS011;24356;48.460;11.450;2023-03-31T02:27:07;9.57;;;3.88;;
38591;SDS011;24356;48.460;11.450;2023-03-31T02:29:43;7.63;;;3.90;;
38591;SDS011;24356;48.460;11.450;2023-03-31T02:32:24;5.63;;;3.45;;
38591;SDS011;24356;48.460;11.450;2023-03-31T02:34:56;5.18;;;3.30;;
38591;SDS011;24356;48.460;11.450;2023-03-31T02:37:22;7.30;;;3.95;;
38591;SDS011;24356;48.460;11.450;2023-03-31T02:39:49;9.15;;;4.00;;
38591;SDS011;24356;48.460;11.450;2023-03-31T02:42:17;7.32;;;3.60;;
38591;SDS011;24356;48.460;11.450;2023-03-31T02:44:44;7.40;;;3.53;;
38591;SDS011;24356;48.460;11.450;2023-03-31T02:47:10;6.13;;;3.80;;
38591;SDS011;24356;48.460;11.450;2023-03-31T02:49:38;7.53;;;4.20;;
38591;SDS011;24356;48.460;11.450;2023-03-31T02:52:22;7.30;;;3.67;;
38591;SDS011;24356;48.460;11.450;2023-03-31T03:06:10;6.63;;;3.83;;
38591;SDS011;24356;48.460;11.450;2023-03-31T03:09:04;9.13;;;4.43;;
38591;SDS011;24356;48.460;11.450;2023-03-31T03:14:26;17.45;;;6.95;;
38591;SDS011;24356;48.460;11.450;2023-03-31T03:20:10;18.15;;;7.65;;
38591;SDS011;24356;48.460;11.450;2023-03-31T03:22:38;20.48;;;8.70;;
38591;SDS011;24356;48.460;11.450;2023-03-31T03:25:05;24.67;;;8.48;;
38591;SDS011;24356;48.460;11.450;2023-03-31T03:27:33;18.35;;;7.95;;
38591;SDS011;24356;48.460;11.450;2023-03-31T03:30:00;17.08;;;7.60;;
38591;SDS011;24356;48.460;11.450;2023-03-31T03:32:30;17.35;;;8.00;;
38591;SDS011;24356;48.460;11.450;2023-03-31T03:34:57;19.42;;;7.70;;
38591;SDS011;24356;48.460;11.450;2023-03-31T03:37:26;18.25;;;7.72;;
38591;SDS011;24356;48.460;11.450;2023-03-31T03:39:52;14.98;;;6.65;;
38591;SDS011;24356;48.460;11.450;2023-03-31T03:42:18;18.48;;;6.63;;
38591;SDS011;24356;48.460;11.450;2023-03-31T03:44:43;20.67;;;7.95;;
38591;SDS011;24356;48.460;11.450;2023-03-31T03:47:09;24.15;;;9.95;;
38591;SDS011;24356;48.460;11.450;2023-03-31T03:49:35;29.05;;;11.10;;
38591;SDS011;24356;48.460;11.450;2023-03-31T03:52:00;27.35;;;10.60;;
38591;SDS011;24356;48.460;11.450;2023-03-31T03:54:26;23.95;;;11.45;;
38591;SDS011;24356;48.460;11.450;2023-03-31T03:56:53;27.63;;;11.23;;
38591;SDS011;24356;48.460;11.450;2023-03-31T03:59:20;29.85;;;12.45;;
38591;SDS011;24356;48.460;11.450;2023-03-31T04:01:45;39.60;;;12.70;;
38591;SDS011;24356;48.460;11.450;2023-03-31T04:04:11;35.47;;;13.50;;
38591;SDS011;24356;48.460;11.450;2023-03-31T04:06:37;35.65;;;13.43;;
38591;SDS011;24356;48.460;11.450;2023-03-31T04:09:02;36.28;;;13.85;;
38591;SDS011;24356;48.460;11.450;2023-03-31T04:11:29;31.05;;;13.75;;
38591;SDS011;24356;48.460;11.450;2023-03-31T04:13:55;35.75;;;15.20;;
38591;SDS011;24356;48.460;11.450;2023-03-31T04:16:21;34.05;;;15.10;;
38591;SDS011;24356;48.460;11.450;2023-03-31T04:18:50;39.15;;;14.68;;
38591;SDS011;24356;48.460;11.450;2023-03-31T04:21:20;25.67;;;12.55;;
38591;SDS011;24356;48.460;11.450;2023-03-31T04:23:47;27.25;;;12.80;;
38591;SDS011;24356;48.460;11.450;2023-03-31T04:26:15;31.92;;;12.65;;
38591;SDS011;24356;48.460;11.450;2023-03-31T04:28:43;29.67;;;12.05;;
38591;SDS011;24356;48.460;11.450;2023-03-31T04:31:14;25.70;;;11.88;;
38591;SDS011;24356;48.460;11.450;2023-03-31T04:33:49;28.77;;;13.65;;
38591;SDS011;24356;48.460;11.450;2023-03-31T04:36:15;28.45;;;13.43;;
38591;SDS011;24356;48.460;11.450;2023-03-31T04:38:44;43.45;;;14.55;;
38591;SDS011;24356;48.460;11.450;2023-03-31T04:41:17;25.35;;;13.65;;
38591;SDS011;24356;48.460;11.450;2023-03-31T04:43:43;36.88;;;14.30;;
38591;SDS011;24356;48.460;11.450;2023-03-31T04:46:09;33.03;;;14.52;;
38591;SDS011;24356;48.460;11.450;2023-03-31T04:48:34;36.38;;;15.07;;
38591;SDS011;24356;48.460;11.450;2023-03-31T04:51:00;33.80;;;14.98;;
38591;SDS011;24356;48.460;11.450;2023-03-31T04:53:26;35.25;;;15.18;;
38591;SDS011;24356;48.460;11.450;2023-03-31T04:55:52;38.13;;;15.10;;
38591;SDS011;24356;48.460;11.450;2023-03-31T04:58:18;32.13;;;14.98;;
38591;SDS011;24356;48.460;11.450;2023-03-31T05:00:43;28.00;;;14.10;;
38591;SDS011;24356;48.460;11.450;2023-03-31T05:03:09;28.88;;;14.63;;
38591;SDS011;24356;48.460;11.450;2023-03-31T05:05:35;34.17;;;14.88;;
38591;SDS011;24356;48.460;11.450;2023-03-31T05:08:01;30.38;;;14.90;;
38591;SDS011;24356;48.460;11.450;2023-03-31T05:10:28;35.25;;;15.23;;
38591;SDS011;24356;48.460;11.450;2023-03-31T05:12:54;32.85;;;15.05;;
38591;SDS011;24356;48.460;11.450;2023-03-31T05:15:20;32.58;;;15.18;;
38591;SDS011;24356;48.460;11.450;2023-03-31T05:17:46;38.90;;;16.00;;
38591;SDS011;24356;48.460;11.450;2023-03-31T05:20:12;33.47;;;15.43;;
38591;SDS011;24356;48.460;11.450;2023-03-31T05:22:39;29.08;;;14.52;;
38591;SDS011;24356;48.460;11.450;2023-03-31T05:25:06;30.85;;;14.07;;
38591;SDS011;24356;48.460;11.450;2023-03-31T05:27:33;26.75;;;13.80;;
38591;SDS011;24356;48.460;11.450;2023-03-31T05:29:59;34.50;;;14.95;;
38591;SDS011;24356;48.460;11.450;2023-03-31T05:32:26;31.50;;;14.57;;
38591;SDS011;24356;48.460;11.450;2023-03-31T05:34:52;30.40;;;15.40;;
38591;SDS011;24356;48.460;11.450;2023-03-31T05:37:21;35.22;;;16.33;;
38591;SDS011;24356;48.460;11.450;2023-03-31T05:39:49;29.75;;;15.45;;
38591;SDS011;24356;48.460;11.450;2023-03-31T05:42:15;29.88;;;14.65;;
38591;SDS011;24356;48.460;11.450;2023-03-31T05:44:41;32.45;;;14.50;;
38591;SDS011;24356;48.460;11.450;2023-03-31T05:47:06;34.33;;;15.35;;
38591;SDS011;24356;48.460;11.450;2023-03-31T05:49:32;30.50;;;14.10;;
38591;SDS011;24356;48.460;11.450;2023-03-31T05:51:59;29.88;;;14.07;;
38591;SDS011;24356;48.460;11.450;2023-03-31T05:54:25;32.20;;;15.07;;
38591;SDS011;24356;48.460;11.450;2023-03-31T05:56:53;28.10;;;14.60;;
38591;SDS011;24356;48.460;11.450;2023-03-31T05:59:19;32.15;;;15.15;;
38591;SDS011;24356;48.460;11.450;2023-03-31T06:01:45;29.05;;;14.40;;
38591;SDS011;24356;48.460;11.450;2023-03-31T06:04:11;32.45;;;14.57;;
38591;SDS011;24356;48.460;11.450;2023-03-31T06:06:36;30.90;;;15.13;;
38591;SDS011;24356;48.460;11.450;2023-03-31T06:09:03;34.72;;;13.60;;
38591;SDS011;24356;48.460;11.450;2023-03-31T06:11:29;31.73;;;13.73;;
38591;SDS011;24356;48.460;11.450;2023-03-31T06:13:55;34.28;;;14.68;;
38591;SDS011;24356;48.460;11.450;2023-03-31T06:16:20;35.85;;;15.80;;
38591;SDS011;24356;48.460;11.450;2023-03-31T06:18:46;28.60;;;15.57;;
38591;SDS011;24356;48.460;11.450;2023-03-31T06:21:15;30.05;;;15.73;;
38591;SDS011;24356;48.460;11.450;2023-03-31T06:23:41;36.20;;;16.00;;
38591;SDS011;24356;48.460;11.450;2023-03-31T06:26:11;26.27;;;14.02;;
38591;SDS011;24356;48.460;11.450;2023-03-31T06:28:39;29.10;;;14.23;;
38591;SDS011;24356;48.460;11.450;2023-03-31T06:31:09;29.83;;;14.05;;
38591;SDS011;24356;48.460;11.450;2023-03-31T06:33:37;24.23;;;12.70;;
38591;SDS011;24356;48.460;11.450;2023-03-31T06:36:03;19.38;;;12.40;;
38591;SDS011;24356;48.460;11.450;2023-03-31T06:38:33;29.45;;;12.38;;
38591;SDS011;24356;48.460;11.450;2023-03-31T06:41:00;27.83;;;12.77;;
38591;SDS011;24356;48.460;11.450;2023-03-31T06:43:26;32.22;;;11.90;;
38591;SDS011;24356;48.460;11.450;2023-03-31T06:45:52;27.75;;;12.38;;
38591;SDS011;24356;48.460;11.450;2023-03-31T06:48:18;27.77;;;12.02;;
38591;SDS011;24356;48.460;11.450;2023-03-31T06:50:44;30.88;;;12.80;;
38591;SDS011;24356;48.460;11.450;2023-03-31T06:53:10;24.90;;;11.70;;
38591;SDS011;24356;48.460;11.450;2023-03-31T06:55:36;17.27;;;10.23;;
38591;SDS011;24356;48.460;11.450;2023-03-31T06:58:02;22.65;;;10.63;;
38591;SDS011;24356;48.460;11.450;2023-03-31T07:00:29;34.85;;;18.35;;
38591;SDS011;24356;48.460;11.450;2023-03-31T07:02:56;56.90;;;31.02;;
38591;SDS011;24356;48.460;11.450;2023-03-31T07:05:22;41.08;;;20.98;;
38591;SDS011;24356;48.460;11.450;2023-03-31T07:07:54;22.27;;;10.82;;
38591;SDS011;24356;48.460;11.450;2023-03-31T07:10:22;19.17;;;9.57;;
38591;SDS011;24356;48.460;11.450;2023-03-31T07:12:50;21.90;;;9.43;;
38591;SDS011;24356;48.460;11.450;2023-03-31T07:15:16;26.85;;;12.35;;
38591;SDS011;24356;48.460;11.450;2023-03-31T07:17:42;31.20;;;12.25;;
38591;SDS011;24356;48.460;11.450;2023-03-31T07:20:08;20.77;;;10.82;;
38591;SDS011;24356;48.460;11.450;2023-03-31T07:22:39;26.15;;;11.45;;
38591;SDS011;24356;48.460;11.450;2023-03-31T07:25:05;28.98;;;12.43;;
38591;SDS011;24356;48.460;11.450;2023-03-31T07:27:32;28.33;;;13.15;;
38591;SDS011;24356;48.460;11.450;2023-03-31T07:29:58;26.80;;;13.77;;
38591;SDS011;24356;48.460;11.450;2023-03-31T07:32:24;28.67;;;13.68;;
38591;SDS011;24356;48.460;11.450;2023-03-31T07:34:50;26.80;;;13.40;;
38591;SDS011;24356;48.460;11.450;2023-03-31T07:37:15;33.90;;;16.83;;
38591;SDS011;24356;48.460;11.450;2023-03-31T07:39:41;29.05;;;14.95;;
38591;SDS011;24356;48.460;11.450;2023-03-31T07:42:07;28.55;;;14.70;;
38591;SDS011;24356;48.460;11.450;2023-03-31T07:44:33;26.48;;;14.40;;
38591;SDS011;24356;48.460;11.450;2023-03-31T07:46:59;34.97;;;16.10;;
38591;SDS011;24356;48.460;11.450;2023-03-31T07:49:30;38.30;;;19.05;;
38591;SDS011;24356;48.460;11.450;2023-03-31T07:51:56;39.20;;;20.45;;
38591;SDS011;24356;48.460;11.450;2023-03-31T07:54:22;50.90;;;23.67;;
38591;SDS011;24356;48.460;11.450;2023-03-31T07:56:48;46.97;;;23.95;;
38591;SDS011;24356;48.460;11.450;2023-03-31T07:59:13;58.72;;;25.95;;
38591;SDS011;24356;48.460;11.450;2023-03-31T08:01:39;59.15;;;27.95;;
38591;SDS011;24356;48.460;11.450;2023-03-31T08:04:05;65.55;;;30.23;;
38591;SDS011;24356;48.460;11.450;2023-03-31T08:06:30;65.32;;;30.85;;
38591;SDS011;24356;48.460;11.450;2023-03-31T08:08:56;72.65;;;33.45;;
38591;SDS011;24356;48.460;11.450;2023-03-31T08:11:23;74.63;;;32.00;;
38591;SDS011;24356;48.460;11.450;2023-03-31T08:13:49;72.30;;;32.75;;
38591;SDS011;24356;48.460;11.450;2023-03-31T08:16:16;67.18;;;33.15;;
38591;SDS011;24356;48.460;11.450;2023-03-31T08:18:42;85.18;;;34.42;;
38591;SDS011;24356;48.460;11.450;2023-03-31T08:21:07;80.75;;;34.92;;
38591;SDS011;24356;48.460;11.450;2023-03-31T08:23:36;74.63;;;32.92;;
38591;SDS011;24356;48.460;11.450;2023-03-31T08:26:09;62.15;;;30.50;;
38591;SDS011;24356;48.460;11.450;2023-03-31T08:28:36;56.15;;;25.90;;
38591;SDS011;24356;48.460;11.450;2023-03-31T08:31:03;36.88;;;21.08;;
38591;SDS011;24356;48.460;11.450;2023-03-31T08:33:31;33.15;;;16.65;;
38591;SDS011;24356;48.460;11.450;2023-03-31T08:36:00;25.63;;;13.77;;
38591;SDS011;24356;48.460;11.450;2023-03-31T08:38:30;25.88;;;13.02;;
38591;SDS011;24356;48.460;11.450;2023-03-31T08:41:01;29.98;;;13.05;;
38591;SDS011;24356;48.460;11.450;2023-03-31T08:43:30;27.90;;;13.75;;
38591;SDS011;24356;48.460;11.450;2023-03-31T08:45:59;23.80;;;11.80;;
38591;SDS011;24356;48.460;11.450;2023-03-31T08:48:37;18.13;;;9.93;;
38591;SDS011;24356;48.460;11.450;2023-03-31T08:51:26;18.25;;;9.55;;
38591;SDS011;24356;48.460;11.450;2023-03-31T08:54:14;16.75;;;9.60;;
38591;SDS011;24356;48.460;11.450;2023-03-31T08:56:46;24.75;;;10.57;;
38591;SDS011;24356;48.460;11.450;2023-03-31T08:59:25;19.80;;;11.15;;
38591;SDS011;24356;48.460;11.450;2023-03-31T09:01:56;26.38;;;12.55;;
38591;SDS011;24356;48.460;11.450;2023-03-31T09:04:55;23.35;;;11.13;;
38591;SDS011;24356;48.460;11.450;2023-03-31T09:10:10;27.65;;;15.05;;
38591;SDS011;24356;48.460;11.450;2023-03-31T09:15:28;28.77;;;13.48;;
38591;SDS011;24356;48.460;11.450;2023-03-31T09:17:58;28.92;;;16.13;;
38591;SDS011;24356;48.460;11.450;2023-03-31T09:20:32;43.38;;;22.63;;
38591;SDS011;24356;48.460;11.450;2023-03-31T09:23:12;59.42;;;27.70;;
38591;SDS011;24356;48.460;11.450;2023-03-31T09:25:41;67.25;;;28.85;;
38591;SDS011;24356;48.460;11.450;2023-03-31T09:28:33;73.95;;;31.85;;
38591;SDS011;24356;48.460;11.450;2023-03-31T09:31:02;57.00;;;27.08;;
38591;SDS011;24356;48.460;11.450;2023-03-31T09:33:32;63.20;;;28.17;;
38591;SDS011;24356;48.460;11.450;2023-03-31T09:35:59;55.78;;;26.42;;
38591;SDS011;24356;48.460;11.450;2023-03-31T09:38:27;42.78;;;21.80;;
38591;SDS011;24356;48.460;11.450;2023-03-31T09:40:58;28.23;;;16.00;;
38591;SDS011;24356;48.460;11.450;2023-03-31T09:43:27;17.60;;;9.95;;
38591;SDS011;24356;48.460;11.450;2023-03-31T09:45:55;14.35;;;7.30;;
38591;SDS011;24356;48.460;11.450;2023-03-31T09:48:22;7.40;;;4.93;;
38591;SDS011;24356;48.460;11.450;2023-03-31T09:50:57;4.28;;;2.42;;
38591;SDS011;24356;48.460;11.450;2023-03-31T09:53:28;5.60;;;2.40;;
38591;SDS011;24356;48.460;11.450;2023-03-31T09:56:02;5.72;;;2.75;;
38591;SDS011;24356;48.460;11.450;2023-03-31T09:58:33;5.53;;;2.45;;
38591;SDS011;24356;48.460;11.450;2023-03-31T10:01:11;5.10;;;2.25;;
38591;SDS011;24356;48.460;11.450;2023-03-31T10:03:51;5.47;;;2.38;;
38591;SDS011;24356;48.460;11.450;2023-03-31T10:06:18;3.38;;;1.88;;
38591;SDS011;24356;48.460;11.450;2023-03-31T10:11:24;3.67;;;1.92;;
38591;SDS011;24356;48.460;11.450;2023-03-31T10:16:33;3.05;;;1.85;;
38591;SDS011;24356;48.460;11.450;2023-03-31T10:19:26;3.67;;;1.98;;
38591;SDS011;24356;48.460;11.450;2023-03-31T10:24:40;3.63;;;2.05;;
38591;SDS011;24356;48.460;11.450;2023-03-31T10:27:16;2.72;;;1.90;;
38591;SDS011;24356;48.460;11.450;2023-03-31T10:29:56;7.90;;;2.42;;
38591;SDS011;24356;48.460;11.450;2023-03-31T10:32:28;2.95;;;1.77;;
38591;SDS011;24356;48.460;11.450;2023-03-31T10:34:57;3.85;;;1.85;;
38591;SDS011;24356;48.460;11.450;2023-03-31T10:37:27;2.13;;;1.60;;
38591;SDS011;24356;48.460;11.450;2023-03-31T10:40:13;2.72;;;1.63;;
38591;SDS011;24356;48.460;11.450;2023-03-31T10:42:44;2.83;;;1.83;;
38591;SDS011;24356;48.460;11.450;2023-03-31T10:45:27;7.57;;;1.90;;
38591;SDS011;24356;48.460;11.450;2023-03-31T10:47:56;5.53;;;2.05;;
38591;SDS011;24356;48.460;11.450;2023-03-31T10:50:28;4.53;;;1.83;;
38591;SDS011;24356;48.460;11.450;2023-03-31T10:53:00;4.72;;;1.65;;
38591;SDS011;24356;48.460;11.450;2023-03-31T10:55:33;4.85;;;1.63;;
38591;SDS011;24356;48.460;11.450;2023-03-31T11:01:02;3.40;;;1.70;;
38591;SDS011;24356;48.460;11.450;2023-03-31T11:06:27;3.97;;;2.10;;
38591;SDS011;24356;48.460;11.450;2023-03-31T11:09:10;3.83;;;1.90;;
38591;SDS011;24356;48.460;11.450;2023-03-31T11:11:48;3.53;;;1.90;;
38591;SDS011;24356;48.460;11.450;2023-03-31T11:17:53;5.93;;;2.20;;
38591;SDS011;24356;48.460;11.450;2023-03-31T11:25:49;4.07;;;1.38;;
38591;SDS011;24356;48.460;11.450;2023-03-31T11:31:00;4.85;;;1.50;;
38591;SDS011;24356;48.460;11.450;2023-03-31T11:36:40;4.47;;;1.83;;
38591;SDS011;24356;48.460;11.450;2023-03-31T11:42:20;4.05;;;1.80;;
38591;SDS011;24356;48.460;11.450;2023-03-31T11:44:57;23.00;;;19.40;;
38591;SDS011;24356;48.460;11.450;2023-03-31T11:47:37;6.03;;;3.85;;
38591;SDS011;24356;48.460;11.450;2023-03-31T11:50:09;6.97;;;5.40;;
38591;SDS011;24356;48.460;11.450;2023-03-31T11:52:39;8.90;;;7.75;;
38591;SDS011;24356;48.460;11.450;2023-03-31T11:55:15;12.02;;;10.00;;
38591;SDS011;24356;48.460;11.450;2023-03-31T11:57:47;9.43;;;6.50;;
38591;SDS011;24356;48.460;11.450;2023-03-31T12:00:39;20.42;;;12.60;;
38591;SDS011;24356;48.460;11.450;2023-03-31T12:03:12;5.05;;;3.72;;
38591;SDS011;24356;48.460;11.450;2023-03-31T12:05:41;7.20;;;5.57;;
38591;SDS011;24356;48.460;11.450;2023-03-31T12:08:36;5.82;;;3.00;;
38591;SDS011;24356;48.460;11.450;2023-03-31T12:14:00;5.55;;;2.67;;
38591;SDS011;24356;48.460;11.450;2023-03-31T12:16:53;4.70;;;1.77;;
38591;SDS011;24356;48.460;11.450;2023-03-31T12:19:26;6.70;;;2.15;;
38591;SDS011;24356;48.460;11.450;2023-03-31T12:24:46;3.40;;;1.75;;
38591;SDS011;24356;48.460;11.450;2023-03-31T12:27:13;4.57;;;1.80;;
38591;SDS011;24356;48.460;11.450;2023-03-31T12:30:37;5.47;;;1.50;;
38591;SDS011;24356;48.460;11.450;2023-03-31T12:32:47;5.78;;;1.65;;
38591;SDS011;24356;48.460;11.450;2023-03-31T12:35:24;3.80;;;1.80;;
38591;SDS011;24356;48.460;11.450;2023-03-31T12:51:47;3.90;;;1.50;;
38591;SDS011;24356;48.460;11.450;2023-03-31T12:59:31;2.47;;;1.10;;
38591;SDS011;24356;48.460;11.450;2023-03-31T13:02:32;4.50;;;1.33;;
38591;SDS011;24356;48.460;11.450;2023-03-31T13:04:50;6.20;;;1.45;;
38591;SDS011;24356;48.460;11.450;2023-03-31T13:10:25;2.70;;;0.93;;
38591;SDS011;24356;48.460;11.450;2023-03-31T13:13:04;3.92;;;1.25;;
38591;SDS011;24356;48.460;11.450;2023-03-31T13:15:38;6.90;;;1.08;;
38591;SDS011;24356;48.460;11.450;2023-03-31T13:18:05;5.10;;;1.08;;
38591;SDS011;24356;48.460;11.450;2023-03-31T13:23:01;6.60;;;1.25;;
38591;SDS011;24356;48.460;11.450;2023-03-31T13:25:38;5.32;;;1.20;;
38591;SDS011;24356;48.460;11.450;2023-03-31T13:28:31;4.72;;;1.30;;
38591;SDS011;24356;48.460;11.450;2023-03-31T13:31:10;2.88;;;1.05;;
38591;SDS011;24356;48.460;11.450;2023-03-31T13:33:50;4.53;;;1.15;;
38591;SDS011;24356;48.460;11.450;2023-03-31T13:49:49;2.22;;;0.80;;
38591;SDS011;24356;48.460;11.450;2023-03-31T13:52:27;2.50;;;0.80;;
38591;SDS011;24356;48.460;11.450;2023-03-31T14:00:51;2.13;;;0.85;;
38591;SDS011;24356;48.460;11.450;2023-03-31T14:06:23;2.40;;;0.80;;
38591;SDS011;24356;48.460;11.450;2023-03-31T14:09:20;2.92;;;0.90;;
38591;SDS011;24356;48.460;11.450;2023-03-31T14:11:54;2.63;;;0.52;;
38591;SDS011;24356;48.460;11.450;2023-03-31T14:14:23;4.88;;;0.88;;
38591;SDS011;24356;48.460;11.450;2023-03-31T14:17:00;2.80;;;0.85;;
38591;SDS011;24356;48.460;11.450;2023-03-31T14:19:34;1.45;;;0.45;;
38591;SDS011;24356;48.460;11.450;2023-03-31T14:30:15;2.80;;;1.10;;
38591;SDS011;24356;48.460;11.450;2023-03-31T14:35:34;2.67;;;0.93;;
38591;SDS011;24356;48.460;11.450;2023-03-31T14:38:03;1.20;;;0.70;;
38591;SDS011;24356;48.460;11.450;2023-03-31T14:40:33;3.85;;;1.00;;
38591;SDS011;24356;48.460;11.450;2023-03-31T14:43:09;1.88;;;0.80;;
38591;SDS011;24356;48.460;11.450;2023-03-31T14:45:45;1.83;;;0.70;;
38591;SDS011;24356;48.460;11.450;2023-03-31T14:48:12;3.30;;;1.02;;
38591;SDS011;24356;48.460;11.450;2023-03-31T14:50:43;2.08;;;0.60;;
38591;SDS011;24356;48.460;11.450;2023-03-31T14:53:17;3.47;;;1.05;;
38591;SDS011;24356;48.460;11.450;2023-03-31T14:55:47;11.70;;;7.53;;
38591;SDS011;24356;48.460;11.450;2023-03-31T14:58:29;5.20;;;2.50;;
38591;SDS011;24356;48.460;11.450;2023-03-31T15:00:58;4.68;;;1.48;;
38591;SDS011;24356;48.460;11.450;2023-03-31T15:03:28;5.85;;;3.75;;
38591;SDS011;24356;48.460;11.450;2023-03-31T15:05:58;5.05;;;2.42;;
38591;SDS011;24356;48.460;11.450;2023-03-31T15:08:26;4.10;;;2.40;;
38591;SDS011;24356;48.460;11.450;2023-03-31T15:10:55;4.55;;;2.85;;
38591;SDS011;24356;48.460;11.450;2023-03-31T15:13:33;8.30;;;2.92;;
38591;SDS011;24356;48.460;11.450;2023-03-31T15:18:59;3.28;;;1.83;;
38591;SDS011;24356;48.460;11.450;2023-03-31T15:21:31;3.15;;;2.40;;
38591;SDS011;24356;48.460;11.450;2023-03-31T15:24:03;3.33;;;1.50;;
38591;SDS011;24356;48.460;11.450;2023-03-31T15:26:36;5.95;;;2.42;;
38591;SDS011;24356;48.460;11.450;2023-03-31T15:29:16;1.95;;;1.30;;
38591;SDS011;24356;48.460;11.450;2023-03-31T15:31:47;8.05;;;3.35;;
38591;SDS011;24356;48.460;11.450;2023-03-31T15:34:14;13.00;;;6.18;;
38591;SDS011;24356;48.460;11.450;2023-03-31T15:36:55;5.38;;;2.60;;
38591;SDS011;24356;48.460;11.450;2023-03-31T15:39:25;4.15;;;2.50;;
38591;SDS011;24356;48.460;11.450;2023-03-31T15:41:53;5.72;;;2.78;;
38591;SDS011;24356;48.460;11.450;2023-03-31T15:44:28;5.43;;;2.45;;
38591;SDS011;24356;48.460;11.450;2023-03-31T15:47:11;7.30;;;2.80;;
38591;SDS011;24356;48.460;11.450;2023-03-31T15:49:45;6.53;;;2.47;;
38591;SDS011;24356;48.460;11.450;2023-03-31T15:52:20;6.60;;;1.95;;
38591;SDS011;24356;48.460;11.450;2023-03-31T15:55:28;4.82;;;2.55;;
38591;SDS011;24356;48.460;11.450;2023-03-31T15:58:03;10.13;;;3.80;;
38591;SDS011;24356;48.460;11.450;2023-03-31T16:03:00;9.38;;;3.42;;
38591;SDS011;24356;48.460;11.450;2023-03-31T16:05:46;9.70;;;4.15;;
38591;SDS011;24356;48.460;11.450;2023-03-31T16:08:19;7.72;;;2.50;;
38591;SDS011;24356;48.460;11.450;2023-03-31T16:10:53;6.28;;;2.28;;
38591;SDS011;24356;48.460;11.450;2023-03-31T16:13:25;5.63;;;1.42;;
38591;SDS011;24356;48.460;11.450;2023-03-31T16:15:53;3.55;;;1.92;;
38591;SDS011;24356;48.460;11.450;2023-03-31T16:18:24;5.90;;;1.90;;
38591;SDS011;24356;48.460;11.450;2023-03-31T16:21:03;5.07;;;1.33;;
38591;SDS011;24356;48.460;11.450;2023-03-31T16:23:31;4.00;;;1.23;;
38591;SDS011;24356;48.460;11.450;2023-03-31T16:26:05;4.05;;;1.42;;
38591;SDS011;24356;48.460;11.450;2023-03-31T16:28:32;4.15;;;1.13;;
38591;SDS011;24356;48.460;11.450;2023-03-31T16:31:00;3.00;;;1.35;;
38591;SDS011;24356;48.460;11.450;2023-03-31T16:33:27;5.63;;;1.40;;
38591;SDS011;24356;48.460;11.450;2023-03-31T16:35:55;3.90;;;1.40;;
38591;SDS011;24356;48.460;11.450;2023-03-31T16:38:23;3.15;;;1.15;;
38591;SDS011;24356;48.460;11.450;2023-03-31T16:40:53;4.60;;;1.25;;
38591;SDS011;24356;48.460;11.450;2023-03-31T16:43:26;5.38;;;2.03;;
38591;SDS011;24356;48.460;11.450;2023-03-31T16:45:55;5.05;;;1.45;;
38591;SDS011;24356;48.460;11.450;2023-03-31T16:48:23;4.18;;;1.55;;
38591;SDS011;24356;48.460;11.450;2023-03-31T16:50:52;5.10;;;1.92;;
38591;SDS011;24356;48.460;11.450;2023-03-31T16:53:24;4.50;;;0.90;;
38591;SDS011;24356;48.460;11.450;2023-03-31T16:55:51;4.47;;;1.60;;
38591;SDS011;24356;48.460;11.450;2023-03-31T16:58:18;2.75;;;1.20;;
38591;SDS011;24356;48.460;11.450;2023-03-31T17:00:45;3.42;;;1.33;;
38591;SDS011;24356;48.460;11.450;2023-03-31T17:03:11;3.47;;;1.20;;
38591;SDS011;24356;48.460;11.450;2023-03-31T17:05:41;5.45;;;0.93;;
38591;SDS011;24356;48.460;11.450;2023-03-31T17:08:08;4.18;;;1.35;;
38591;SDS011;24356;48.460;11.450;2023-03-31T17:10:35;4.90;;;1.20;;
38591;SDS011;24356;48.460;11.450;2023-03-31T17:13:02;3.67;;;1.80;;
38591;SDS011;24356;48.460;11.450;2023-03-31T17:15:28;4.88;;;2.35;;